Chamical, Argentina
Current Conditions -  °F | °C
As of 4:00 AM on Monday 22 Dec 2014 (Local Time) from SACO Reporting Station
Clear Clear  
Wind Chill: 46°   Ceiling: Unl
Heat Index: 48°   Visibility: 6mi
Dew Point: 36°   Wind: 6mph
Humidity: 62%   Direction: 320°NW
Pressure: 30.12"   Gusts: NA
Location:  30.36°S, 66.31°W
Report Text: SACO 220700Z 32005KT CAVOK 09/02 Q1020
Loading
Personal Weather Stations






























Interactive Weather Map New forecast layout! Learn more

10-Day Weather Forecast

Advertisements
Track Severe Weather on mobile